Time;durP1;ratioP1;P1;durP2;ratioP2;P2;SDS_P1;SDS_P2;PMS_P1;PMS_P2;Temp;Humidity;BMP_temperature;BMP_pressure;BME280_temperature;BME280_humidity;BME280_pressure;Samples;Min_cycle;Max_cycle;Signal;HPM_P1;HPM_P2
2022/04/15 00:01:25;;;;;;;;;18.67;17.67;;;;;16.54;56.89;101791.28;4974955;27;45450;-58
2022/04/15 00:03:51;;;;;;;;;18.33;18.33;;;;;16.53;56.96;101786.84;4975417;28;45421;-58
2022/04/15 00:06:17;;;;;;;;;15.00;15.00;;;;;16.56;56.89;101785.81;4974074;28;46341;-57
2022/04/15 00:08:43;;;;;;;;;12.00;11.00;;;;;16.57;56.67;101792.91;4972848;28;46495;-58
2022/04/15 00:11:09;;;;;;;;;18.33;15.33;;;;;16.57;56.61;101791.06;4973454;28;45792;-57
2022/04/15 00:13:35;;;;;;;;;14.67;14.67;;;;;16.47;56.90;101779.16;4973620;28;45339;-58
2022/04/15 00:16:03;;;;;;;;;18.33;17.00;;;;;16.50;56.66;101787.88;5030679;28;45522;-57
2022/04/15 00:18:29;;;;;;;;;14.67;13.00;;;;;16.53;56.79;101794.88;4996913;27;46119;-58
2022/04/15 00:20:55;;;;;;;;;13.67;13.67;;;;;16.52;56.95;101779.72;4973767;28;45396;-58
2022/04/15 00:23:22;;;;;;;;;14.00;12.00;;;;;16.55;56.50;101781.41;4974224;28;45467;-58
2022/04/15 00:25:52;;;;;;;;;18.67;16.33;;;;;16.36;56.70;101761.03;4973855;28;45348;-58
2022/04/15 00:28:18;;;;;;;;;17.67;16.33;;;;;16.51;56.64;101791.44;4962709;28;45570;-56
2022/04/15 00:30:43;;;;;;;;;15.00;14.00;;;;;16.37;56.83;101770.81;4966994;28;45291;-56
2022/04/15 00:33:09;;;;;;;;;16.67;16.67;;;;;16.47;56.87;101790.78;4974327;28;45822;-58
2022/04/15 00:35:34;;;;;;;;;17.33;17.33;;;;;16.48;57.32;101800.56;4973749;28;45475;-58
2022/04/15 00:38:00;;;;;;;;;14.67;13.00;;;;;16.45;57.04;101784.63;4972051;27;45427;-57
2022/04/15 00:40:27;;;;;;;;;19.00;14.00;;;;;16.37;57.14;101778.00;4973995;28;45602;-57
2022/04/15 00:42:52;;;;;;;;;22.33;18.00;;;;;16.41;57.21;101793.00;4964428;28;45281;-59
2022/04/15 00:45:18;;;;;;;;;19.33;17.00;;;;;16.33;57.42;101781.84;4964428;28;45718;-58
2022/04/15 00:47:49;;;;;;;;;21.67;17.67;;;;;16.36;57.46;101790.56;4973377;28;45492;-58
2022/04/15 00:50:16;;;;;;;;;18.33;17.00;;;;;16.27;57.47;101779.50;4972570;28;45495;-59
2022/04/15 00:52:44;;;;;;;;;16.67;14.67;;;;;16.26;57.48;101797.44;4973691;28;45376;-59
2022/04/15 00:55:10;;;;;;;;;15.67;15.67;;;;;16.18;58.10;101786.31;4972702;28;45553;-57
2022/04/15 00:57:40;;;;;;;;;15.67;15.33;;;;;16.18;57.91;101783.66;4974844;28;45510;-58
2022/04/15 01:00:07;;;;;;;;;17.00;15.00;;;;;16.12;58.01;101787.53;4972140;28;45480;-58
2022/04/15 01:02:34;;;;;;;;;14.00;14.00;;;;;16.09;58.18;101792.25;4974376;28;45376;-59
2022/04/15 01:05:02;;;;;;;;;20.67;17.00;;;;;16.04;58.62;101784.47;4975012;28;45229;-60
2022/04/15 01:07:33;;;;;;;;;16.67;13.00;;;;;15.96;58.53;101783.19;4974620;28;46422;-58
2022/04/15 01:09:59;;;;;;;;;15.33;14.00;;;;;15.91;58.28;101778.97;4973742;28;45235;-57
2022/04/15 01:12:28;;;;;;;;;16.33;13.00;;;;;15.89;58.17;101780.91;5014490;28;45663;-58
2022/04/15 01:14:59;;;;;;;;;14.33;12.67;;;;;15.93;58.60;101793.16;5059640;27;45321;-58
2022/04/15 01:17:25;;;;;;;;;12.33;11.00;;;;;15.92;58.48;101783.38;5015091;28;46863;-58
2022/04/15 01:19:50;;;;;;;;;12.33;12.00;;;;;15.95;58.16;101785.00;4965347;28;45478;-58
2022/04/15 01:22:17;;;;;;;;;4.67;4.00;;;;;15.91;58.46;101784.34;4966760;28;45681;-58
2022/04/15 01:24:43;;;;;;;;;12.00;11.50;;;;;15.83;58.35;101769.66;4972461;28;45236;-58
2022/04/15 01:27:09;;;;;;;;;12.00;12.00;;;;;15.96;58.37;101799.28;4973199;28;47259;-58
2022/04/15 01:29:39;;;;;;;;;11.00;7.67;;;;;15.99;58.20;101801.78;4974054;27;45419;-58
2022/04/15 01:32:06;;;;;;;;;9.00;9.00;;;;;15.80;58.45;101773.38;4953005;28;45447;-59
2022/04/15 01:34:32;;;;;;;;;9.33;9.00;;;;;15.90;58.09;101784.44;4973244;28;45578;-58
2022/04/15 01:37:00;;;;;;;;;10.33;9.33;;;;;15.92;58.09;101798.63;4974479;28;46056;-57
2022/04/15 01:39:27;;;;;;;;;6.00;6.00;;;;;15.93;58.22;101803.03;4971871;28;45469;-58
2022/04/15 01:41:52;;;;;;;;;9.00;8.67;;;;;15.89;57.96;101786.25;4943269;28;45592;-58
2022/04/15 01:44:18;;;;;;;;;9.00;6.67;;;;;15.84;57.96;101782.97;4954857;28;45423;-58
2022/04/15 01:46:44;;;;;;;;;9.00;9.00;;;;;15.91;57.94;101795.06;4973497;27;46237;-58
2022/04/15 01:49:09;;;;;;;;;10.00;9.00;;;;;15.85;58.29;101784.69;4972395;28;45656;-57
2022/04/15 01:51:35;;;;;;;;;4.33;4.33;;;;;15.84;57.82;101799.06;4949877;28;45508;-58
2022/04/15 01:54:01;;;;;;;;;8.67;7.33;;;;;15.83;58.15;101801.84;4966948;28;45509;-58
2022/04/15 01:56:27;;;;;;;;;7.33;7.33;;;;;15.81;58.26;101796.56;4972240;28;47539;-57
2022/04/15 01:58:52;;;;;;;;;5.00;5.00;;;;;15.79;58.14;101790.44;4956442;28;45367;-56
2022/04/15 02:01:18;;;;;;;;;12.33;7.67;;;;;15.80;57.85;101796.66;4970381;28;45594;-58
2022/04/15 02:03:43;;;;;;;;;6.00;6.00;;;;;15.77;58.47;101797.72;4972204;28;45577;-57
2022/04/15 02:06:09;;;;;;;;;4.67;4.67;;;;;15.77;58.13;101796.84;4973408;28;46691;-57
2022/04/15 02:08:34;;;;;;;;;10.00;6.33;;;;;15.79;58.54;101793.13;4972043;28;45615;-57
2022/04/15 02:11:00;;;;;;;;;9.00;7.33;;;;;15.82;58.47;101794.75;4971708;28;45480;-58
2022/04/15 02:13:25;;;;;;;;;6.33;6.33;;;;;15.77;58.21;101784.31;4971626;28;45432;-58
2022/04/15 02:15:51;;;;;;;;;9.33;9.33;;;;;15.84;58.77;101785.66;4987624;28;45453;-59
2022/04/15 02:18:16;;;;;;;;;10.00;7.67;;;;;15.74;58.39;101767.50;4966223;28;45457;-58
2022/04/15 02:20:41;;;;;;;;;7.33;7.33;;;;;15.80;58.70;101797.53;4972284;28;45477;-61
2022/04/15 02:23:07;;;;;;;;;6.67;6.67;;;;;15.66;58.98;101788.56;4973538;28;45417;-57
2022/04/15 02:25:32;;;;;;;;;8.33;8.33;;;;;15.41;58.69;101757.78;4971267;28;45774;-57
2022/04/15 02:27:58;;;;;;;;;12.00;11.00;;;;;15.49;59.27;101790.34;4973621;28;45444;-58
2022/04/15 02:30:23;;;;;;;;;8.67;8.67;;;;;15.57;58.95;101809.56;4972750;28;45445;-58
2022/04/15 02:32:48;;;;;;;;;11.33;10.00;;;;;15.47;59.36;101786.03;4973071;28;45367;-60
2022/04/15 02:35:14;;;;;;;;;12.00;10.33;;;;;15.45;59.65;101787.94;4968449;27;45564;-58
2022/04/15 02:37:39;;;;;;;;;8.00;6.00;;;;;15.49;59.40;101803.75;4976249;27;45258;-57
2022/04/15 02:40:06;;;;;;;;;12.00;10.67;;;;;15.54;59.65;101800.81;4974884;28;45367;-57
2022/04/15 02:42:33;;;;;;;;;10.00;10.00;;;;;15.45;59.74;101785.25;4976959;28;45229;-58
2022/04/15 02:44:59;;;;;;;;;14.00;11.00;;;;;15.47;59.37;101780.66;4975448;28;45265;-56
2022/04/15 02:47:24;;;;;;;;;9.00;9.00;;;;;15.48;59.69;101782.41;4973421;28;45802;-58
2022/04/15 02:49:50;;;;;;;;;11.00;10.00;;;;;15.52;59.55;101784.84;4974857;28;45502;-56
2022/04/15 02:52:16;;;;;;;;;10.00;10.00;;;;;15.53;59.63;101801.78;4976368;28;45320;-64
2022/04/15 02:54:41;;;;;;;;;9.00;9.00;;;;;15.46;59.88;101795.03;4974759;28;46817;-58
2022/04/15 02:57:07;;;;;;;;;10.67;10.33;;;;;15.53;59.72;101793.75;4976692;28;45423;-58
2022/04/15 02:59:33;;;;;;;;;12.00;12.00;;;;;15.52;59.77;101802.72;4973782;27;45469;-57
2022/04/15 03:01:59;;;;;;;;;9.00;9.00;;;;;15.48;60.03;101807.38;4975632;28;45587;-59
2022/04/15 03:04:24;;;;;;;;;11.00;8.00;;;;;15.41;60.05;101794.44;4975668;28;45542;-58
2022/04/15 03:06:49;;;;;;;;;11.00;9.67;;;;;15.48;59.99;101807.38;4975501;28;46687;-58
2022/04/15 03:09:15;;;;;;;;;14.33;12.33;;;;;15.41;60.19;101800.66;4975253;28;45386;-57
2022/04/15 03:11:41;;;;;;;;;18.00;13.00;;;;;15.50;59.91;101813.56;4969454;28;45400;-58
2022/04/15 03:14:07;;;;;;;;;10.67;9.67;;;;;15.51;59.97;101803.69;4975644;28;46353;-57
2022/04/15 03:16:33;;;;;;;;;10.33;10.33;;;;;15.39;59.78;101786.50;4975943;28;45297;-57
2022/04/15 03:18:59;;;;;;;;;9.33;9.00;;;;;15.48;60.42;101811.88;4973589;28;45693;-57
2022/04/15 03:21:24;;;;;;;;;10.00;10.00;;;;;15.49;60.29;101805.56;4980564;28;45898;-58
2022/04/15 03:23:50;;;;;;;;;7.67;7.33;;;;;15.46;59.99;101803.06;4981722;27;46188;-57
2022/04/15 03:26:15;;;;;;;;;8.33;8.33;;;;;15.34;60.59;101793.91;4975394;28;45347;-58
2022/04/15 03:28:41;;;;;;;;;13.67;10.00;;;;;15.28;60.66;101795.13;4974394;28;45553;-58
2022/04/15 03:31:09;;;;;;;;;9.33;8.33;;;;;15.33;61.30;101809.13;4974894;28;45351;-57
2022/04/15 03:33:34;;;;;;;;;12.00;11.67;;;;;15.20;61.48;101802.72;4974175;27;45968;-56
2022/04/15 03:36:00;;;;;;;;;8.67;8.67;;;;;15.12;61.93;101796.09;4974788;28;45566;-58
2022/04/15 03:38:25;;;;;;;;;18.00;14.33;;;;;15.16;62.40;101817.25;4965693;28;46074;-58
2022/04/15 03:40:50;;;;;;;;;14.67;14.67;;;;;15.09;62.45;101810.50;4970740;28;45371;-58
2022/04/15 03:43:16;;;;;;;;;11.67;11.67;;;;;15.07;63.11;101812.41;4972612;27;45228;-58
2022/04/15 03:45:41;;;;;;;;;13.00;12.00;;;;;15.04;62.77;101802.72;4975515;28;45292;-57
2022/04/15 03:48:07;;;;;;;;;12.67;12.67;;;;;15.04;63.20;101815.25;4975630;28;45572;-58
2022/04/15 03:50:33;;;;;;;;;9.33;8.33;;;;;15.02;62.64;101811.81;4974105;28;45287;-57
2022/04/15 03:52:59;;;;;;;;;12.33;11.33;;;;;15.08;62.98;101819.50;4973609;28;45660;-57
2022/04/15 03:55:25;;;;;;;;;14.67;12.33;;;;;15.07;63.30;101823.13;4973983;27;45323;-59
2022/04/15 03:57:51;;;;;;;;;13.00;13.00;;;;;14.96;63.52;101820.16;4974212;28;45392;-58
2022/04/15 04:00:21;;;;;;;;;19.00;16.00;;;;;14.96;63.58;101825.53;4975090;28;45460;-58
2022/04/15 04:02:49;;;;;;;;;13.00;13.00;;;;;14.84;63.97;101818.16;4964176;28;45384;-56
2022/04/15 04:05:15;;;;;;;;;16.00;13.33;;;;;14.89;63.65;101826.81;4961787;28;45500;-58
2022/04/15 04:07:41;;;;;;;;;13.00;13.00;;;;;14.88;63.59;101822.41;4971991;28;45486;-57
2022/04/15 04:10:07;;;;;;;;;17.33;15.33;;;;;14.82;63.99;101814.69;4973983;27;45493;-58
2022/04/15 04:12:33;;;;;;;;;16.00;14.33;;;;;14.68;63.96;101810.94;4973575;28;45674;-58
2022/04/15 04:15:03;;;;;;;;;14.33;12.67;;;;;14.70;64.40;101811.72;4984205;28;45565;-56
2022/04/15 04:17:28;;;;;;;;;15.00;12.00;;;;;14.78;64.22;101830.06;5048153;28;45384;-57
2022/04/15 04:19:54;;;;;;;;;13.67;11.67;;;;;14.82;63.82;101828.94;4970482;28;45525;-57
2022/04/15 04:22:20;;;;;;;;;17.67;14.67;;;;;14.80;63.88;101838.03;4973148;28;45425;-59
2022/04/15 04:24:45;;;;;;;;;14.33;14.33;;;;;14.68;64.37;101827.00;4974728;28;45335;-57
2022/04/15 04:27:11;;;;;;;;;18.00;14.67;;;;;14.55;64.79;101812.56;4973576;28;45321;-58
2022/04/15 04:29:36;;;;;;;;;17.33;12.00;;;;;14.58;64.75;101820.41;4972892;28;45299;-58
2022/04/15 04:32:01;;;;;;;;;18.33;12.00;;;;;14.54;64.29;101818.00;4983724;28;47355;-58
2022/04/15 04:41:10;;;;;;;;;23.00;16.00;;;;;14.48;65.57;101847.78;4975012;28;45400;-59
2022/04/15 04:43:36;;;;;;;;;19.33;15.33;;;;;14.29;65.57;101835.31;4978293;27;45969;-59
2022/04/15 04:46:01;;;;;;;;;20.67;16.00;;;;;14.35;65.88;101851.06;4974742;28;45280;-58
2022/04/15 04:48:27;;;;;;;;;16.67;16.67;;;;;14.20;66.14;101829.59;4959493;28;45839;-59
2022/04/15 04:50:52;;;;;;;;;20.00;16.67;;;;;14.28;66.74;101854.97;4977607;28;45486;-57
2022/04/15 04:53:18;;;;;;;;;12.67;12.67;;;;;14.27;66.08;101858.59;4979502;28;45412;-58
2022/04/15 04:55:44;;;;;;;;;20.33;18.33;;;;;14.27;66.44;101863.09;4987587;28;44760;-57
2022/04/15 04:58:10;;;;;;;;;12.00;12.00;;;;;14.16;66.60;101861.81;4989763;28;45265;-57
2022/04/15 05:00:35;;;;;;;;;16.67;16.33;;;;;14.14;67.19;101861.03;4980203;28;45417;-57
2022/04/15 05:03:01;;;;;;;;;20.67;17.33;;;;;14.14;67.02;101858.38;4989714;28;46396;-60
2022/04/15 05:05:26;;;;;;;;;17.25;14.50;;;;;14.14;66.81;101863.72;5018501;27;45618;-58
2022/04/15 05:07:52;;;;;;;;;17.67;15.33;;;;;14.15;67.04;101870.78;4997141;28;44819;-61
2022/04/15 05:10:17;;;;;;;;;20.67;17.00;;;;;14.14;67.31;101874.41;5005076;28;44812;-57
2022/04/15 05:12:45;;;;;;;;;15.00;15.00;;;;;14.13;67.06;101875.38;4990364;27;45460;-57
2022/04/15 05:15:11;;;;;;;;;15.25;14.00;;;;;14.17;66.80;101876.94;5010056;27;45819;-57
2022/04/15 05:17:38;;;;;;;;;19.33;17.33;;;;;14.15;66.52;101865.44;5031971;27;45425;-57
2022/04/15 05:20:04;;;;;;;;;18.00;16.67;;;;;14.20;66.52;101870.59;4995017;28;45700;-57
2022/04/15 05:22:30;;;;;;;;;17.00;15.67;;;;;14.24;65.98;101885.53;5020667;28;46977;-57
2022/04/15 05:24:55;;;;;;;;;16.00;14.67;;;;;14.26;66.30;101890.78;4966319;28;45806;-58
2022/04/15 05:27:20;;;;;;;;;25.33;19.67;;;;;14.26;66.10;101882.78;4973761;28;45449;-57
2022/04/15 05:29:46;;;;;;;;;18.00;18.00;;;;;14.27;66.27;101888.03;4977714;28;45464;-56
2022/04/15 05:32:11;;;;;;;;;18.00;16.67;;;;;14.29;65.57;101888.81;4989909;28;46209;-49
2022/04/15 05:34:37;;;;;;;;;16.67;15.33;;;;;14.34;65.71;101884.13;4983025;28;45331;-58
2022/04/15 05:37:02;;;;;;;;;15.00;15.00;;;;;14.39;65.16;101894.56;4977038;28;45397;-57
2022/04/15 05:39:28;;;;;;;;;18.33;13.67;;;;;14.39;65.17;101894.56;4978433;28;45362;-55
2022/04/15 05:41:53;;;;;;;;;13.33;13.33;;;;;14.39;64.88;101886.56;4980149;28;45362;-56
2022/04/15 05:44:19;;;;;;;;;13.33;13.33;;;;;14.42;64.64;101889.06;4963738;28;45389;-54
2022/04/15 05:46:44;;;;;;;;;12.00;12.00;;;;;14.43;64.69;101896.13;4978924;28;45430;-59
2022/04/15 05:49:14;;;;;;;;;16.67;14.33;;;;;14.44;64.34;101893.41;4986932;28;45568;-53
2022/04/15 05:51:43;;;;;;;;;16.00;14.67;;;;;14.41;64.44;101892.69;5024087;28;45458;-54
2022/04/15 05:54:09;;;;;;;;;19.33;17.33;;;;;14.47;64.63;101896.91;5013329;28;45495;-55
2022/04/15 05:56:35;;;;;;;;;18.33;18.33;;;;;14.48;64.94;101904.00;4974897;28;45716;-56
2022/04/15 05:59:01;;;;;;;;;23.33;20.67;;;;;14.53;64.30;101899.25;4969024;28;45537;-58
2022/04/15 06:01:26;;;;;;;;;18.00;16.00;;;;;14.49;64.49;101895.00;4974648;28;45484;-56
2022/04/15 06:03:51;;;;;;;;;19.50;19.00;;;;;14.54;64.25;101904.53;4962185;28;45680;-60
2022/04/15 06:06:17;;;;;;;;;19.33;19.33;;;;;14.57;64.42;101904.34;4958251;28;45445;-55
2022/04/15 06:08:42;;;;;;;;;26.67;22.67;;;;;14.49;64.09;101895.00;4970413;28;45517;-57
2022/04/15 06:11:08;;;;;;;;;16.67;14.67;;;;;14.55;64.95;101905.38;4964486;28;46222;-57
2022/04/15 06:13:33;;;;;;;;;19.67;19.67;;;;;14.56;64.69;101913.34;4975879;28;45328;-57
2022/04/15 06:15:59;;;;;;;;;22.67;20.00;;;;;14.49;64.16;101889.66;4970495;28;46788;-63
2022/04/15 06:18:34;;;;;;;;;18.67;17.33;;;;;14.63;64.21;101920.13;4977356;28;45524;-62
2022/04/15 06:21:01;;;;;;;;;21.67;19.00;;;;;14.71;63.67;101927.75;4987961;28;45282;-61
2022/04/15 06:23:27;;;;;;;;;17.00;16.67;;;;;14.67;63.53;101916.31;4980958;28;45424;-58
2022/04/15 06:25:53;;;;;;;;;19.33;18.33;;;;;14.69;63.80;101913.56;4975875;28;44831;-58
2022/04/15 06:28:21;;;;;;;;;13.00;13.00;;;;;14.80;63.62;101934.44;4957753;28;45391;-58
2022/04/15 06:30:47;;;;;;;;;31.50;29.00;;;;;14.74;63.38;101917.75;4967672;28;46294;-64
2022/04/15 06:33:15;;;;;;;;;18.67;17.33;;;;;14.83;63.32;101926.22;4982115;28;44908;-63
2022/04/15 06:35:41;;;;;;;;;25.50;21.75;;;;;14.90;63.22;101936.56;4983755;28;45635;-59
2022/04/15 06:38:06;;;;;;;;;31.75;29.50;;;;;14.93;62.86;101932.84;4965248;28;45532;-59
2022/04/15 06:40:32;;;;;;;;;22.00;17.67;;;;;14.85;62.68;101932.41;4959470;28;46308;-58
2022/04/15 06:42:57;;;;;;;;;22.67;21.67;;;;;14.90;63.02;101933.88;4988929;28;45414;-58
2022/04/15 06:45:23;;;;;;;;;24.00;22.00;;;;;14.98;63.25;101929.00;4982140;28;45409;-58
2022/04/15 06:47:48;;;;;;;;;22.67;19.67;;;;;14.98;62.79;101925.44;4989849;27;45326;-58
2022/04/15 06:50:15;;;;;;;;;23.33;20.00;;;;;15.10;62.63;101946.19;4970247;28;46018;-59
2022/04/15 06:52:40;;;;;;;;;22.67;19.67;;;;;15.10;62.25;101929.25;4970619;28;45265;-56
2022/04/15 06:55:07;;;;;;;;;14.67;14.67;;;;;15.19;62.37;101939.50;4976416;28;45477;-58
2022/04/15 06:57:32;;;;;;;;;20.33;18.67;;;;;15.27;62.40;101937.28;4975688;28;44848;-58
2022/04/15 06:59:58;;;;;;;;;25.00;20.33;;;;;15.17;62.46;101920.81;4975585;28;45053;-58
2022/04/15 07:02:25;;;;;;;;;21.00;19.00;;;;;15.31;62.31;101944.19;4976109;28;45283;-59
2022/04/15 07:04:51;;;;;;;;;27.67;23.00;;;;;15.29;61.84;101930.88;4990731;28;45522;-58
2022/04/15 07:07:16;;;;;;;;;23.00;21.67;;;;;15.35;61.83;101933.19;4982115;27;45617;-61
2022/04/15 07:09:42;;;;;;;;;17.67;17.67;;;;;15.48;61.98;101946.81;4978002;28;47086;-57
2022/04/15 07:12:07;;;;;;;;;19.33;17.00;;;;;15.53;60.24;101946.56;4970176;28;45522;-58
2022/04/15 07:14:33;;;;;;;;;21.00;16.67;;;;;15.47;60.16;101954.94;4982331;28;45338;-59
2022/04/15 07:16:59;;;;;;;;;15.33;15.33;;;;;15.47;60.06;101954.94;4997428;28;45165;-57
2022/04/15 07:19:25;;;;;;;;;24.67;18.33;;;;;15.44;60.51;101953.28;4979410;27;46049;-57
2022/04/15 07:21:50;;;;;;;;;20.67;20.67;;;;;15.48;60.50;101956.66;4999721;27;45329;-58
2022/04/15 07:24:16;;;;;;;;;18.33;16.33;;;;;15.59;60.13;101959.63;4973877;28;45474;-60
2022/04/15 07:26:42;;;;;;;;;20.33;17.00;;;;;15.59;59.97;101954.25;5050826;27;45672;-63
2022/04/15 07:29:07;;;;;;;;;20.67;18.33;;;;;15.68;60.26;101956.47;4974372;28;48115;-58
2022/04/15 07:31:34;;;;;;;;;19.50;19.50;;;;;15.74;59.90;101958.78;4968239;28;45314;-58
2022/04/15 07:34:00;;;;;;;;;20.00;20.00;;;;;15.78;59.53;101957.69;4960937;28;45604;-57
2022/04/15 07:36:42;;;;;;;;;21.33;17.67;;;;;15.82;59.75;101961.06;4972223;28;45555;-59
2022/04/15 07:39:10;;;;;;;;;20.33;20.33;;;;;15.90;59.20;101959.69;4957419;28;48323;-57
2022/04/15 07:41:37;;;;;;;;;22.33;20.00;;;;;15.96;59.17;101958.47;5007239;27;45493;-60
2022/04/15 07:44:04;;;;;;;;;23.67;22.33;;;;;15.96;59.31;101949.53;5003049;28;45522;-58
2022/04/15 07:46:30;;;;;;;;;23.00;19.00;;;;;15.81;58.62;101909.22;4982206;28;45337;-59
2022/04/15 07:48:55;;;;;;;;;21.00;19.33;;;;;15.96;59.17;101931.63;4977243;28;45326;-60
2022/04/15 07:51:21;;;;;;;;;23.33;20.00;;;;;16.11;58.91;101951.34;4978267;28;45398;-58
2022/04/15 07:53:46;;;;;;;;;22.00;17.67;;;;;16.15;58.53;101961.84;4970883;28;51526;-59
2022/04/15 07:56:12;;;;;;;;;18.67;18.67;;;;;16.18;57.84;101952.75;5006815;27;45369;-58
2022/04/15 07:58:37;;;;;;;;;23.67;20.00;;;;;16.19;57.59;101959.84;5008562;28;47705;-57
2022/04/15 08:01:03;;;;;;;;;23.33;21.67;;;;;15.98;57.98;101935.09;4976339;28;45413;-57
2022/04/15 08:03:29;;;;;;;;;22.00;19.67;;;;;16.05;58.18;101966.00;4989045;28;45326;-58
2022/04/15 08:05:54;;;;;;;;;23.67;17.00;;;;;16.10;58.38;101965.72;4979532;27;45209;-57
2022/04/15 08:08:21;;;;;;;;;25.67;17.67;;;;;16.20;57.97;101967.78;4974415;28;45300;-62
2022/04/15 08:10:48;;;;;;;;;22.67;15.67;;;;;16.24;57.67;101960.41;4975352;27;45340;-58
2022/04/15 08:13:14;;;;;;;;;16.67;16.33;;;;;16.28;57.35;101947.72;4961193;28;45322;-57
2022/04/15 08:15:39;;;;;;;;;17.00;16.33;;;;;16.27;56.92;101938.75;4998269;28;45513;-58
2022/04/15 08:18:05;;;;;;;;;16.00;14.00;;;;;16.28;56.63;101943.19;4998635;28;46500;-59
2022/04/15 08:20:31;;;;;;;;;13.33;10.00;;;;;16.43;57.10;101962.91;4978142;28;45655;-56
2022/04/15 08:22:56;;;;;;;;;15.00;14.00;;;;;16.42;56.72;101945.06;4983086;28;45443;-56
2022/04/15 08:25:22;;;;;;;;;14.00;12.00;;;;;16.56;56.42;101968.44;4975711;28;45750;-59
2022/04/15 08:27:47;;;;;;;;;16.33;14.00;;;;;16.54;56.71;101952.41;4975204;28;46329;-59
2022/04/15 08:30:12;;;;;;;;;9.67;9.00;;;;;16.64;55.12;101960.75;4976136;28;45342;-60
2022/04/15 08:32:38;;;;;;;;;6.00;5.00;;;;;16.51;54.40;101958.81;4965702;28;45354;-56
2022/04/15 08:35:06;;;;;;;;;6.00;6.00;;;;;16.61;54.67;101950.19;4976533;28;45351;-58
2022/04/15 08:37:33;;;;;;;;;5.33;4.00;;;;;16.85;54.01;101964.88;4987085;28;46009;-59
2022/04/15 08:39:59;;;;;;;;;3.00;3.00;;;;;17.10;53.68;101964.25;4968587;28;45580;-59
2022/04/15 08:42:24;;;;;;;;;7.00;7.00;;;;;17.21;53.11;101947.47;5017963;27;45773;-60
2022/04/15 08:44:51;;;;;;;;;4.33;4.33;;;;;17.59;52.81;101962.03;4990827;28;45354;-58
2022/04/15 08:47:17;;;;;;;;;8.00;7.00;;;;;17.77;51.93;101961.84;4965705;27;47850;-59
2022/04/15 08:49:43;;;;;;;;;5.00;5.00;;;;;18.03;51.10;101968.22;4976134;28;45255;-59
2022/04/15 08:52:12;;;;;;;;;2.67;2.67;;;;;18.18;49.92;101970.78;4965378;28;44746;-58
2022/04/15 08:54:38;;;;;;;;;4.33;4.00;;;;;18.39;50.36;101967.63;4978302;28;45335;-59
2022/04/15 08:57:04;;;;;;;;;3.00;3.00;;;;;18.55;49.73;101962.94;4979328;28;46148;-59
2022/04/15 08:59:29;;;;;;;;;3.00;3.00;;;;;18.72;49.33;101959.09;4982813;28;45417;-59
2022/04/15 09:01:55;;;;;;;;;4.00;4.00;;;;;18.95;49.33;101968.31;4981226;28;45450;-57
2022/04/15 09:04:20;;;;;;;;;3.67;3.67;;;;;19.24;48.17;101972.53;4983358;28;45360;-57
2022/04/15 09:06:55;;;;;;;;;4.00;4.00;;;;;19.35;47.57;101942.94;4971842;28;45078;-58
2022/04/15 09:09:20;;;;;;;;;7.00;6.00;;;;;19.74;46.52;101965.38;4983354;28;45310;-62
2022/04/15 09:11:51;;;;;;;;;4.00;4.00;;;;;19.94;45.99;101966.63;4998899;28;45540;-63
2022/04/15 09:14:16;;;;;;;;;5.00;3.67;;;;;20.09;45.48;101959.22;4994848;27;45464;-63
2022/04/15 09:16:47;;;;;;;;;7.00;5.00;;;;;20.24;46.05;101958.06;5038208;28;46393;-59
2022/04/15 09:19:13;;;;;;;;;4.00;4.00;;;;;20.77;45.30;101961.25;4987365;28;45365;-60
2022/04/15 09:21:42;;;;;;;;;6.00;3.00;;;;;21.09;44.89;101966.84;4977782;28;45299;-58
2022/04/15 09:24:08;;;;;;;;;7.33;7.00;;;;;21.46;43.39;101962.09;4975527;28;45638;-62
2022/04/15 09:26:36;;;;;;;;;5.00;5.00;;;;;21.77;42.46;101969.50;4973191;28;46220;-61
2022/04/15 09:29:02;;;;;;;;;3.00;3.00;;;;;21.99;42.16;101954.16;4976229;28;45345;-60
2022/04/15 09:31:28;;;;;;;;;3.75;3.75;;;;;22.16;40.21;101948.25;4975024;28;45274;-57
2022/04/15 09:33:58;;;;;;;;;5.50;3.50;;;;;22.29;40.69;101965.22;4974269;28;45283;-58
2022/04/15 09:36:27;;;;;;;;;3.00;2.00;;;;;22.58;41.17;101970.03;4973961;27;46847;-58
2022/04/15 09:38:58;;;;;;;;;3.75;3.00;;;;;22.99;40.30;101971.06;4979712;28;45543;-60
2022/04/15 09:41:25;;;;;;;;;5.00;3.50;;;;;23.18;38.68;101968.47;4987040;28;45448;-59
2022/04/15 09:43:55;;;;;;;;;3.00;3.00;;;;;23.06;38.78;101956.84;4986441;28;45453;-60
2022/04/15 09:46:21;;;;;;;;;3.00;3.00;;;;;23.04;38.62;101960.66;4989587;28;45408;-59
2022/04/15 09:49:09;;;;;;;;;5.00;5.00;;;;;23.23;40.47;101955.34;4992472;28;45826;-58
2022/04/15 09:51:54;;;;;;;;;5.50;5.50;;;;;23.33;39.03;101964.41;4992147;28;45544;-59
2022/04/15 09:54:24;;;;;;;;;5.75;5.75;;;;;23.21;38.72;101962.78;4991726;27;45313;-60
2022/04/15 09:56:51;;;;;;;;;4.00;4.00;;;;;23.17;38.99;101942.31;4986095;27;46273;-61
2022/04/15 09:59:22;;;;;;;;;4.00;2.75;;;;;23.10;38.31;101941.13;4970278;28;44784;-60
2022/04/15 10:01:55;;;;;;;;;9.00;5.00;;;;;23.01;39.59;101960.94;4971852;28;45276;-60
2022/04/15 10:04:23;;;;;;;;;6.00;4.50;;;;;23.08;38.46;101956.69;4983894;28;45272;-59
2022/04/15 10:06:48;;;;;;;;;2.00;2.00;;;;;23.13;39.38;101957.13;4985525;28;46158;-58
2022/04/15 10:09:14;;;;;;;;;4.00;3.00;;;;;23.21;39.45;101950.06;4986222;27;45758;-62
2022/04/15 10:11:45;;;;;;;;;5.00;5.00;;;;;23.15;39.29;101936.16;4982951;28;45782;-56
2022/04/15 10:14:12;;;;;;;;;5.00;5.00;;;;;23.12;38.68;101952.72;4980131;28;45299;-60
2022/04/15 10:16:42;;;;;;;;;5.75;5.75;;;;;22.88;39.60;101945.72;5039811;28;46506;-56
2022/04/15 10:19:09;;;;;;;;;5.00;5.00;;;;;22.66;39.77;101943.13;4973079;28;45831;-59
2022/04/15 10:21:39;;;;;;;;;4.75;3.00;;;;;22.45;39.75;101947.66;4957370;28;45376;-58
2022/04/15 10:24:08;;;;;;;;;5.00;4.75;;;;;22.19;40.69;101937.16;4976480;28;45747;-58
2022/04/15 10:26:45;;;;;;;;;3.00;3.00;;;;;22.00;40.57;101943.19;4962841;28;46111;-63
2022/04/15 10:29:12;;;;;;;;;5.75;5.75;;;;;21.87;40.58;101941.63;4964044;28;45297;-59
2022/04/15 10:31:42;;;;;;;;;4.75;4.00;;;;;21.73;41.02;101926.53;4962847;28;45343;-57
2022/04/15 10:34:15;;;;;;;;;3.00;3.00;;;;;21.61;40.54;101931.09;4959444;28;45472;-60
2022/04/15 10:36:48;;;;;;;;;3.50;2.50;;;;;21.53;40.92;101939.00;4970254;28;46497;-59
2022/04/15 10:39:24;;;;;;;;;3.50;3.50;;;;;21.30;40.66;101943.53;4974526;28;45348;-58
2022/04/15 10:41:52;;;;;;;;;2.00;2.00;;;;;21.11;42.14;101927.88;4976772;28;45286;-60
2022/04/15 10:44:26;;;;;;;;;3.25;3.25;;;;;21.18;42.17;101929.09;4978164;28;45459;-56
2022/04/15 10:46:52;;;;;;;;;2.75;2.75;;;;;21.12;41.49;101935.03;4977199;28;46353;-59
2022/04/15 10:49:23;;;;;;;;;4.00;3.00;;;;;21.08;41.73;101928.09;4976842;28;45451;-62
2022/04/15 10:51:54;;;;;;;;;2.00;2.00;;;;;20.95;41.75;101938.19;4974606;28;45375;-62
2022/04/15 10:54:35;;;;;;;;;3.50;3.50;;;;;20.79;41.79;101937.66;4974880;28;45519;-65
2022/04/15 10:57:09;;;;;;;;;2.50;2.50;;;;;20.86;42.26;101942.47;4981837;28;46286;-59
2022/04/15 11:02:34;;;;;;;;;3.00;3.00;;;;;21.11;42.07;101930.59;4997881;28;45414;-60
2022/04/15 11:05:00;;;;;;;;;2.75;2.75;;;;;21.13;41.20;101931.34;4992305;28;45433;-59
2022/04/15 11:07:39;;;;;;;;;4.50;3.00;;;;;21.10;42.16;101914.50;4985993;28;45435;-60
2022/04/15 11:10:18;;;;;;;;;3.25;3.25;;;;;21.13;41.11;101920.50;4988773;27;44703;-60
2022/04/15 11:12:43;;;;;;;;;3.00;2.75;;;;;21.16;41.43;101919.41;5001913;28;44821;-58
2022/04/15 11:15:09;;;;;;;;;1.67;1.67;;;;;21.24;40.49;101925.06;5039779;27;45328;-62
2022/04/15 11:17:41;;;;;;;;;2.00;2.00;;;;;21.10;40.13;101915.34;4990299;28;47379;-59
2022/04/15 11:20:08;;;;;;;;;3.00;2.75;;;;;21.05;40.35;101922.09;4986469;28;45409;-61
2022/04/15 11:22:40;;;;;;;;;3.67;2.33;;;;;21.04;40.64;101923.06;4989165;28;45575;-60